sensor_id;sensor_type;location;lat;lon;timestamp;P1;durP1;ratioP1;P2;durP2;ratioP2
11970;SDS011;6045;42.682;23.294;2022-12-24T00:00:10;12.87;;;9.20;;
11970;SDS011;6045;42.682;23.294;2022-12-24T00:02:40;17.00;;;10.20;;
11970;SDS011;6045;42.682;23.294;2022-12-24T00:05:07;21.77;;;10.37;;
11970;SDS011;6045;42.682;23.294;2022-12-24T00:07:34;13.20;;;8.07;;
11970;SDS011;6045;42.682;23.294;2022-12-24T00:10:01;14.20;;;9.23;;
11970;SDS011;6045;42.682;23.294;2022-12-24T00:12:28;14.50;;;9.83;;
11970;SDS011;6045;42.682;23.294;2022-12-24T00:14:55;14.90;;;9.20;;
11970;SDS011;6045;42.682;23.294;2022-12-24T00:17:22;15.37;;;9.23;;
11970;SDS011;6045;42.682;23.294;2022-12-24T00:19:50;12.33;;;7.67;;
11970;SDS011;6045;42.682;23.294;2022-12-24T00:22:17;14.30;;;9.60;;
11970;SDS011;6045;42.682;23.294;2022-12-24T00:24:43;11.70;;;8.53;;
11970;SDS011;6045;42.682;23.294;2022-12-24T00:27:10;13.47;;;9.10;;
11970;SDS011;6045;42.682;23.294;2022-12-24T00:29:37;12.57;;;9.83;;
11970;SDS011;6045;42.682;23.294;2022-12-24T00:32:04;17.10;;;8.70;;
11970;SDS011;6045;42.682;23.294;2022-12-24T00:34:34;13.60;;;8.17;;
11970;SDS011;6045;42.682;23.294;2022-12-24T00:37:02;16.07;;;8.20;;
11970;SDS011;6045;42.682;23.294;2022-12-24T00:39:30;20.10;;;9.67;;
11970;SDS011;6045;42.682;23.294;2022-12-24T00:41:57;12.97;;;8.83;;
11970;SDS011;6045;42.682;23.294;2022-12-24T00:44:24;15.33;;;9.87;;
11970;SDS011;6045;42.682;23.294;2022-12-24T00:46:51;15.67;;;8.20;;
11970;SDS011;6045;42.682;23.294;2022-12-24T00:49:18;17.23;;;9.67;;
11970;SDS011;6045;42.682;23.294;2022-12-24T00:51:45;17.47;;;10.13;;
11970;SDS011;6045;42.682;23.294;2022-12-24T00:54:13;24.87;;;8.87;;
11970;SDS011;6045;42.682;23.294;2022-12-24T00:56:40;14.13;;;8.47;;
11970;SDS011;6045;42.682;23.294;2022-12-24T00:59:07;14.30;;;8.80;;
11970;SDS011;6045;42.682;23.294;2022-12-24T01:01:34;16.27;;;10.47;;
11970;SDS011;6045;42.682;23.294;2022-12-24T01:04:01;18.50;;;9.20;;
11970;SDS011;6045;42.682;23.294;2022-12-24T01:06:41;13.77;;;8.63;;
11970;SDS011;6045;42.682;23.294;2022-12-24T01:09:08;14.37;;;9.07;;
11970;SDS011;6045;42.682;23.294;2022-12-24T01:11:37;17.20;;;10.30;;
11970;SDS011;6045;42.682;23.294;2022-12-24T01:14:04;16.37;;;9.30;;
11970;SDS011;6045;42.682;23.294;2022-12-24T01:16:30;9.13;;;6.43;;
11970;SDS011;6045;42.682;23.294;2022-12-24T01:18:57;9.00;;;8.10;;
11970;SDS011;6045;42.682;23.294;2022-12-24T01:21:24;15.57;;;9.00;;
11970;SDS011;6045;42.682;23.294;2022-12-24T01:23:51;17.10;;;9.77;;
11970;SDS011;6045;42.682;23.294;2022-12-24T01:26:18;17.00;;;9.27;;
11970;SDS011;6045;42.682;23.294;2022-12-24T01:28:46;21.73;;;9.23;;
11970;SDS011;6045;42.682;23.294;2022-12-24T01:31:14;11.33;;;7.07;;
11970;SDS011;6045;42.682;23.294;2022-12-24T01:33:42;12.53;;;8.47;;
11970;SDS011;6045;42.682;23.294;2022-12-24T01:36:09;12.23;;;7.87;;
11970;SDS011;6045;42.682;23.294;2022-12-24T01:38:37;10.23;;;6.13;;
11970;SDS011;6045;42.682;23.294;2022-12-24T01:41:03;8.57;;;6.50;;
11970;SDS011;6045;42.682;23.294;2022-12-24T01:43:49;11.00;;;7.90;;
11970;SDS011;6045;42.682;23.294;2022-12-24T01:46:17;8.43;;;7.07;;
11970;SDS011;6045;42.682;23.294;2022-12-24T01:48:48;13.97;;;9.27;;
11970;SDS011;6045;42.682;23.294;2022-12-24T01:51:22;10.97;;;6.60;;
11970;SDS011;6045;42.682;23.294;2022-12-24T01:53:53;8.50;;;6.63;;
11970;SDS011;6045;42.682;23.294;2022-12-24T01:56:23;14.43;;;8.57;;
11970;SDS011;6045;42.682;23.294;2022-12-24T01:58:54;14.37;;;7.33;;
11970;SDS011;6045;42.682;23.294;2022-12-24T02:01:25;13.30;;;7.57;;
11970;SDS011;6045;42.682;23.294;2022-12-24T02:03:52;13.77;;;7.53;;
11970;SDS011;6045;42.682;23.294;2022-12-24T02:06:19;11.77;;;8.53;;
11970;SDS011;6045;42.682;23.294;2022-12-24T02:08:47;8.97;;;6.53;;
11970;SDS011;6045;42.682;23.294;2022-12-24T02:11:14;6.73;;;5.17;;
11970;SDS011;6045;42.682;23.294;2022-12-24T02:13:43;16.70;;;7.23;;
11970;SDS011;6045;42.682;23.294;2022-12-24T02:16:16;16.03;;;8.53;;
11970;SDS011;6045;42.682;23.294;2022-12-24T02:18:56;11.27;;;7.40;;
11970;SDS011;6045;42.682;23.294;2022-12-24T02:21:38;14.40;;;7.80;;
11970;SDS011;6045;42.682;23.294;2022-12-24T02:27:31;13.97;;;7.23;;
11970;SDS011;6045;42.682;23.294;2022-12-24T02:30:11;11.07;;;8.10;;
11970;SDS011;6045;42.682;23.294;2022-12-24T02:32:54;15.40;;;7.20;;
11970;SDS011;6045;42.682;23.294;2022-12-24T02:35:33;8.13;;;4.80;;
11970;SDS011;6045;42.682;23.294;2022-12-24T02:38:10;14.80;;;5.87;;
11970;SDS011;6045;42.682;23.294;2022-12-24T02:40:41;19.80;;;9.50;;
11970;SDS011;6045;42.682;23.294;2022-12-24T02:43:14;13.20;;;7.07;;
11970;SDS011;6045;42.682;23.294;2022-12-24T02:45:48;22.13;;;7.30;;
11970;SDS011;6045;42.682;23.294;2022-12-24T02:48:19;8.97;;;6.20;;
11970;SDS011;6045;42.682;23.294;2022-12-24T02:50:55;11.53;;;6.40;;
11970;SDS011;6045;42.682;23.294;2022-12-24T02:53:24;14.47;;;6.50;;
11970;SDS011;6045;42.682;23.294;2022-12-24T02:55:55;11.47;;;6.60;;
11970;SDS011;6045;42.682;23.294;2022-12-24T02:58:36;8.10;;;5.87;;
11970;SDS011;6045;42.682;23.294;2022-12-24T03:01:13;6.47;;;5.00;;
11970;SDS011;6045;42.682;23.294;2022-12-24T03:03:54;8.23;;;5.63;;
11970;SDS011;6045;42.682;23.294;2022-12-24T03:06:36;10.00;;;6.53;;
11970;SDS011;6045;42.682;23.294;2022-12-24T03:09:12;11.80;;;6.27;;
11970;SDS011;6045;42.682;23.294;2022-12-24T03:11:47;8.80;;;5.13;;
11970;SDS011;6045;42.682;23.294;2022-12-24T03:14:20;9.63;;;6.00;;
11970;SDS011;6045;42.682;23.294;2022-12-24T03:16:49;11.47;;;7.70;;
11970;SDS011;6045;42.682;23.294;2022-12-24T03:19:16;15.13;;;8.73;;
11970;SDS011;6045;42.682;23.294;2022-12-24T03:21:44;9.27;;;5.77;;
11970;SDS011;6045;42.682;23.294;2022-12-24T03:24:13;6.53;;;5.50;;
11970;SDS011;6045;42.682;23.294;2022-12-24T03:26:40;16.67;;;7.27;;
11970;SDS011;6045;42.682;23.294;2022-12-24T03:29:07;13.60;;;8.90;;
11970;SDS011;6045;42.682;23.294;2022-12-24T03:31:44;11.40;;;7.30;;
11970;SDS011;6045;42.682;23.294;2022-12-24T03:34:14;13.20;;;6.77;;
11970;SDS011;6045;42.682;23.294;2022-12-24T03:36:41;15.00;;;7.17;;
11970;SDS011;6045;42.682;23.294;2022-12-24T03:39:08;6.27;;;5.30;;
11970;SDS011;6045;42.682;23.294;2022-12-24T03:41:36;12.97;;;8.17;;
11970;SDS011;6045;42.682;23.294;2022-12-24T03:44:03;15.53;;;7.63;;
11970;SDS011;6045;42.682;23.294;2022-12-24T03:46:30;7.43;;;6.43;;
11970;SDS011;6045;42.682;23.294;2022-12-24T03:48:56;13.90;;;7.17;;
11970;SDS011;6045;42.682;23.294;2022-12-24T03:51:25;11.67;;;7.90;;
11970;SDS011;6045;42.682;23.294;2022-12-24T03:53:52;12.47;;;8.43;;
11970;SDS011;6045;42.682;23.294;2022-12-24T03:56:19;14.50;;;8.60;;
11970;SDS011;6045;42.682;23.294;2022-12-24T03:58:47;16.57;;;8.77;;
11970;SDS011;6045;42.682;23.294;2022-12-24T04:01:14;13.70;;;8.07;;
11970;SDS011;6045;42.682;23.294;2022-12-24T04:03:41;11.57;;;6.77;;
11970;SDS011;6045;42.682;23.294;2022-12-24T04:06:09;18.57;;;9.80;;
11970;SDS011;6045;42.682;23.294;2022-12-24T04:08:39;11.83;;;8.07;;
11970;SDS011;6045;42.682;23.294;2022-12-24T04:11:07;14.00;;;9.57;;
11970;SDS011;6045;42.682;23.294;2022-12-24T04:13:35;14.53;;;8.77;;
11970;SDS011;6045;42.682;23.294;2022-12-24T04:16:03;13.57;;;7.97;;
11970;SDS011;6045;42.682;23.294;2022-12-24T04:18:31;9.60;;;7.03;;
11970;SDS011;6045;42.682;23.294;2022-12-24T04:20:59;11.83;;;6.47;;
11970;SDS011;6045;42.682;23.294;2022-12-24T04:23:25;12.17;;;7.63;;
11970;SDS011;6045;42.682;23.294;2022-12-24T04:25:54;17.93;;;8.43;;
11970;SDS011;6045;42.682;23.294;2022-12-24T04:28:20;15.90;;;9.07;;
11970;SDS011;6045;42.682;23.294;2022-12-24T04:30:47;18.17;;;7.60;;
11970;SDS011;6045;42.682;23.294;2022-12-24T04:33:14;17.40;;;9.83;;
11970;SDS011;6045;42.682;23.294;2022-12-24T04:35:41;10.27;;;7.07;;
11970;SDS011;6045;42.682;23.294;2022-12-24T04:38:08;10.20;;;5.23;;
11970;SDS011;6045;42.682;23.294;2022-12-24T04:40:35;8.90;;;5.67;;
11970;SDS011;6045;42.682;23.294;2022-12-24T04:43:03;8.03;;;5.57;;
11970;SDS011;6045;42.682;23.294;2022-12-24T04:45:30;7.40;;;5.93;;
11970;SDS011;6045;42.682;23.294;2022-12-24T04:47:57;5.67;;;5.03;;
11970;SDS011;6045;42.682;23.294;2022-12-24T04:50:24;7.27;;;6.03;;
11970;SDS011;6045;42.682;23.294;2022-12-24T04:52:51;8.13;;;5.60;;
11970;SDS011;6045;42.682;23.294;2022-12-24T04:55:18;5.50;;;4.93;;
11970;SDS011;6045;42.682;23.294;2022-12-24T04:57:45;18.70;;;5.60;;
11970;SDS011;6045;42.682;23.294;2022-12-24T05:00:13;11.57;;;5.47;;
11970;SDS011;6045;42.682;23.294;2022-12-24T05:02:40;12.27;;;7.27;;
11970;SDS011;6045;42.682;23.294;2022-12-24T05:05:07;6.20;;;5.60;;
11970;SDS011;6045;42.682;23.294;2022-12-24T05:07:34;10.83;;;7.83;;
11970;SDS011;6045;42.682;23.294;2022-12-24T05:10:01;11.10;;;5.90;;
11970;SDS011;6045;42.682;23.294;2022-12-24T05:12:28;9.07;;;5.00;;
11970;SDS011;6045;42.682;23.294;2022-12-24T05:14:55;8.70;;;6.50;;
11970;SDS011;6045;42.682;23.294;2022-12-24T05:17:23;23.23;;;7.47;;
11970;SDS011;6045;42.682;23.294;2022-12-24T05:19:49;13.90;;;7.13;;
11970;SDS011;6045;42.682;23.294;2022-12-24T05:22:16;13.60;;;5.60;;
11970;SDS011;6045;42.682;23.294;2022-12-24T05:25:00;8.50;;;4.90;;
11970;SDS011;6045;42.682;23.294;2022-12-24T05:27:45;10.23;;;7.50;;
11970;SDS011;6045;42.682;23.294;2022-12-24T05:30:12;9.33;;;5.17;;
11970;SDS011;6045;42.682;23.294;2022-12-24T05:32:40;15.77;;;6.17;;
11970;SDS011;6045;42.682;23.294;2022-12-24T05:35:07;9.60;;;6.27;;
11970;SDS011;6045;42.682;23.294;2022-12-24T05:37:34;15.60;;;6.00;;
11970;SDS011;6045;42.682;23.294;2022-12-24T05:40:01;6.53;;;5.00;;
11970;SDS011;6045;42.682;23.294;2022-12-24T05:42:27;10.30;;;5.87;;
11970;SDS011;6045;42.682;23.294;2022-12-24T05:44:54;10.37;;;6.90;;
11970;SDS011;6045;42.682;23.294;2022-12-24T05:47:21;6.33;;;5.47;;
11970;SDS011;6045;42.682;23.294;2022-12-24T05:49:49;9.17;;;5.17;;
11970;SDS011;6045;42.682;23.294;2022-12-24T05:52:16;12.23;;;8.00;;
11970;SDS011;6045;42.682;23.294;2022-12-24T05:54:43;9.93;;;6.93;;
11970;SDS011;6045;42.682;23.294;2022-12-24T05:57:09;10.23;;;7.60;;
11970;SDS011;6045;42.682;23.294;2022-12-24T05:59:36;15.73;;;7.93;;
11970;SDS011;6045;42.682;23.294;2022-12-24T06:02:03;17.37;;;7.00;;
11970;SDS011;6045;42.682;23.294;2022-12-24T06:04:30;15.50;;;8.20;;
11970;SDS011;6045;42.682;23.294;2022-12-24T06:06:58;13.73;;;7.80;;
11970;SDS011;6045;42.682;23.294;2022-12-24T06:09:26;8.23;;;6.80;;
11970;SDS011;6045;42.682;23.294;2022-12-24T06:11:56;10.87;;;6.80;;
11970;SDS011;6045;42.682;23.294;2022-12-24T06:14:23;10.00;;;8.23;;
11970;SDS011;6045;42.682;23.294;2022-12-24T06:16:50;12.57;;;8.07;;
11970;SDS011;6045;42.682;23.294;2022-12-24T06:19:17;10.70;;;6.57;;
11970;SDS011;6045;42.682;23.294;2022-12-24T06:21:43;12.90;;;7.40;;
11970;SDS011;6045;42.682;23.294;2022-12-24T06:24:12;15.07;;;8.97;;
11970;SDS011;6045;42.682;23.294;2022-12-24T06:26:39;17.83;;;8.17;;
11970;SDS011;6045;42.682;23.294;2022-12-24T06:29:06;13.47;;;8.67;;
11970;SDS011;6045;42.682;23.294;2022-12-24T06:31:34;11.20;;;6.90;;
11970;SDS011;6045;42.682;23.294;2022-12-24T06:34:01;14.83;;;8.50;;
11970;SDS011;6045;42.682;23.294;2022-12-24T06:36:28;8.80;;;6.27;;
11970;SDS011;6045;42.682;23.294;2022-12-24T06:38:54;11.90;;;7.67;;
11970;SDS011;6045;42.682;23.294;2022-12-24T06:41:23;12.50;;;8.33;;
11970;SDS011;6045;42.682;23.294;2022-12-24T06:43:50;13.73;;;9.23;;
11970;SDS011;6045;42.682;23.294;2022-12-24T06:46:18;23.77;;;10.57;;
11970;SDS011;6045;42.682;23.294;2022-12-24T06:48:45;13.87;;;9.90;;
11970;SDS011;6045;42.682;23.294;2022-12-24T06:51:13;18.23;;;10.83;;
11970;SDS011;6045;42.682;23.294;2022-12-24T06:53:41;16.70;;;10.37;;
11970;SDS011;6045;42.682;23.294;2022-12-24T06:56:08;15.27;;;10.97;;
11970;SDS011;6045;42.682;23.294;2022-12-24T06:58:38;17.73;;;11.17;;
11970;SDS011;6045;42.682;23.294;2022-12-24T07:01:06;13.03;;;8.60;;
11970;SDS011;6045;42.682;23.294;2022-12-24T07:03:35;16.27;;;12.17;;
11970;SDS011;6045;42.682;23.294;2022-12-24T07:06:02;18.90;;;12.00;;
11970;SDS011;6045;42.682;23.294;2022-12-24T07:08:29;16.17;;;11.23;;
11970;SDS011;6045;42.682;23.294;2022-12-24T07:10:58;25.27;;;13.50;;
11970;SDS011;6045;42.682;23.294;2022-12-24T07:13:25;24.47;;;14.93;;
11970;SDS011;6045;42.682;23.294;2022-12-24T07:15:57;23.90;;;14.23;;
11970;SDS011;6045;42.682;23.294;2022-12-24T07:18:24;25.73;;;14.03;;
11970;SDS011;6045;42.682;23.294;2022-12-24T07:20:50;31.37;;;17.07;;
11970;SDS011;6045;42.682;23.294;2022-12-24T07:23:17;24.60;;;14.53;;
11970;SDS011;6045;42.682;23.294;2022-12-24T07:25:44;25.13;;;14.73;;
11970;SDS011;6045;42.682;23.294;2022-12-24T07:28:11;23.47;;;13.87;;
11970;SDS011;6045;42.682;23.294;2022-12-24T07:30:37;26.33;;;14.17;;
11970;SDS011;6045;42.682;23.294;2022-12-24T07:33:06;22.07;;;15.20;;
11970;SDS011;6045;42.682;23.294;2022-12-24T07:35:33;29.80;;;13.97;;
11970;SDS011;6045;42.682;23.294;2022-12-24T07:38:00;26.13;;;14.47;;
11970;SDS011;6045;42.682;23.294;2022-12-24T07:40:27;23.00;;;14.27;;
11970;SDS011;6045;42.682;23.294;2022-12-24T07:42:53;30.43;;;15.23;;
11970;SDS011;6045;42.682;23.294;2022-12-24T07:45:20;19.33;;;12.70;;
11970;SDS011;6045;42.682;23.294;2022-12-24T07:47:47;21.00;;;12.33;;
11970;SDS011;6045;42.682;23.294;2022-12-24T07:50:15;17.20;;;11.87;;
11970;SDS011;6045;42.682;23.294;2022-12-24T07:52:42;18.83;;;13.00;;
11970;SDS011;6045;42.682;23.294;2022-12-24T07:55:09;19.47;;;12.83;;
11970;SDS011;6045;42.682;23.294;2022-12-24T07:57:35;26.27;;;15.27;;
11970;SDS011;6045;42.682;23.294;2022-12-24T08:00:03;25.10;;;14.83;;
11970;SDS011;6045;42.682;23.294;2022-12-24T08:02:30;25.37;;;15.97;;
11970;SDS011;6045;42.682;23.294;2022-12-24T08:04:57;22.93;;;16.27;;
11970;SDS011;6045;42.682;23.294;2022-12-24T08:07:25;21.67;;;15.33;;
11970;SDS011;6045;42.682;23.294;2022-12-24T08:09:52;27.63;;;15.77;;
11970;SDS011;6045;42.682;23.294;2022-12-24T08:12:18;26.77;;;16.57;;
11970;SDS011;6045;42.682;23.294;2022-12-24T08:14:45;23.83;;;15.37;;
11970;SDS011;6045;42.682;23.294;2022-12-24T08:17:12;22.40;;;13.67;;
11970;SDS011;6045;42.682;23.294;2022-12-24T08:19:39;20.93;;;13.03;;
11970;SDS011;6045;42.682;23.294;2022-12-24T08:22:05;21.03;;;13.13;;
11970;SDS011;6045;42.682;23.294;2022-12-24T08:24:33;24.83;;;12.93;;
11970;SDS011;6045;42.682;23.294;2022-12-24T08:27:01;21.87;;;11.30;;
11970;SDS011;6045;42.682;23.294;2022-12-24T08:29:28;23.20;;;11.00;;
11970;SDS011;6045;42.682;23.294;2022-12-24T08:31:55;26.40;;;12.80;;
11970;SDS011;6045;42.682;23.294;2022-12-24T08:34:21;22.87;;;12.63;;
11970;SDS011;6045;42.682;23.294;2022-12-24T08:36:48;14.63;;;10.63;;
11970;SDS011;6045;42.682;23.294;2022-12-24T08:39:15;21.97;;;10.73;;
11970;SDS011;6045;42.682;23.294;2022-12-24T08:41:43;16.70;;;9.73;;
11970;SDS011;6045;42.682;23.294;2022-12-24T08:44:10;13.73;;;9.63;;
11970;SDS011;6045;42.682;23.294;2022-12-24T08:46:37;17.97;;;11.10;;
11970;SDS011;6045;42.682;23.294;2022-12-24T08:49:03;20.87;;;10.67;;
11970;SDS011;6045;42.682;23.294;2022-12-24T08:51:30;16.10;;;9.37;;
11970;SDS011;6045;42.682;23.294;2022-12-24T08:53:57;19.77;;;11.67;;
11970;SDS011;6045;42.682;23.294;2022-12-24T08:56:24;14.13;;;10.00;;
11970;SDS011;6045;42.682;23.294;2022-12-24T08:58:52;15.10;;;8.83;;
11970;SDS011;6045;42.682;23.294;2022-12-24T09:01:19;17.47;;;10.00;;
11970;SDS011;6045;42.682;23.294;2022-12-24T09:03:46;14.57;;;8.20;;
11970;SDS011;6045;42.682;23.294;2022-12-24T09:06:14;14.03;;;9.33;;
11970;SDS011;6045;42.682;23.294;2022-12-24T09:08:41;15.77;;;8.30;;
11970;SDS011;6045;42.682;23.294;2022-12-24T09:11:08;13.60;;;8.13;;
11970;SDS011;6045;42.682;23.294;2022-12-24T09:13:37;9.47;;;6.67;;
11970;SDS011;6045;42.682;23.294;2022-12-24T09:16:05;14.07;;;8.17;;
11970;SDS011;6045;42.682;23.294;2022-12-24T09:18:33;13.17;;;6.57;;
11970;SDS011;6045;42.682;23.294;2022-12-24T09:21:01;15.27;;;7.57;;
11970;SDS011;6045;42.682;23.294;2022-12-24T09:23:29;17.93;;;11.10;;
11970;SDS011;6045;42.682;23.294;2022-12-24T09:25:57;21.13;;;12.80;;
11970;SDS011;6045;42.682;23.294;2022-12-24T09:28:24;18.37;;;13.30;;
11970;SDS011;6045;42.682;23.294;2022-12-24T09:30:55;41.23;;;23.40;;
11970;SDS011;6045;42.682;23.294;2022-12-24T09:33:24;51.33;;;25.03;;
11970;SDS011;6045;42.682;23.294;2022-12-24T09:35:51;26.27;;;14.43;;
11970;SDS011;6045;42.682;23.294;2022-12-24T09:38:19;24.73;;;13.83;;
11970;SDS011;6045;42.682;23.294;2022-12-24T09:40:46;26.13;;;15.77;;
11970;SDS011;6045;42.682;23.294;2022-12-24T09:43:15;19.03;;;12.73;;
11970;SDS011;6045;42.682;23.294;2022-12-24T09:45:44;21.80;;;13.30;;
11970;SDS011;6045;42.682;23.294;2022-12-24T09:48:18;22.93;;;14.83;;
11970;SDS011;6045;42.682;23.294;2022-12-24T09:50:51;29.73;;;16.27;;
11970;SDS011;6045;42.682;23.294;2022-12-24T09:53:22;30.87;;;17.93;;
11970;SDS011;6045;42.682;23.294;2022-12-24T09:55:55;30.80;;;19.53;;
11970;SDS011;6045;42.682;23.294;2022-12-24T09:58:24;39.47;;;19.20;;
11970;SDS011;6045;42.682;23.294;2022-12-24T10:00:55;32.07;;;21.37;;
11970;SDS011;6045;42.682;23.294;2022-12-24T10:03:22;36.30;;;22.90;;
11970;SDS011;6045;42.682;23.294;2022-12-24T10:05:55;34.80;;;21.97;;
11970;SDS011;6045;42.682;23.294;2022-12-24T10:08:31;44.70;;;24.10;;
11970;SDS011;6045;42.682;23.294;2022-12-24T10:11:07;49.50;;;26.57;;
11970;SDS011;6045;42.682;23.294;2022-12-24T10:13:44;36.87;;;21.90;;
11970;SDS011;6045;42.682;23.294;2022-12-24T10:16:27;35.60;;;20.27;;
11970;SDS011;6045;42.682;23.294;2022-12-24T10:19:02;40.97;;;21.57;;
11970;SDS011;6045;42.682;23.294;2022-12-24T10:21:39;33.50;;;21.87;;
11970;SDS011;6045;42.682;23.294;2022-12-24T10:24:15;37.07;;;21.43;;
11970;SDS011;6045;42.682;23.294;2022-12-24T10:26:49;45.20;;;22.33;;
11970;SDS011;6045;42.682;23.294;2022-12-24T10:29:22;40.13;;;20.23;;
11970;SDS011;6045;42.682;23.294;2022-12-24T10:34:42;31.80;;;20.23;;
11970;SDS011;6045;42.682;23.294;2022-12-24T10:37:11;31.07;;;19.80;;
11970;SDS011;6045;42.682;23.294;2022-12-24T10:39:44;39.67;;;21.57;;
11970;SDS011;6045;42.682;23.294;2022-12-24T10:42:11;36.77;;;20.67;;
11970;SDS011;6045;42.682;23.294;2022-12-24T10:44:40;37.37;;;20.27;;
11970;SDS011;6045;42.682;23.294;2022-12-24T10:47:09;40.10;;;21.10;;
11970;SDS011;6045;42.682;23.294;2022-12-24T10:49:38;32.80;;;20.27;;
11970;SDS011;6045;42.682;23.294;2022-12-24T10:52:12;31.57;;;20.83;;
11970;SDS011;6045;42.682;23.294;2022-12-24T10:57:36;34.13;;;20.33;;
11970;SDS011;6045;42.682;23.294;2022-12-24T11:00:04;31.50;;;21.83;;
11970;SDS011;6045;42.682;23.294;2022-12-24T11:02:35;36.93;;;21.13;;
11970;SDS011;6045;42.682;23.294;2022-12-24T11:05:03;34.17;;;21.17;;
11970;SDS011;6045;42.682;23.294;2022-12-24T11:07:33;36.23;;;21.43;;
11970;SDS011;6045;42.682;23.294;2022-12-24T11:10:00;37.03;;;20.80;;
11970;SDS011;6045;42.682;23.294;2022-12-24T11:12:31;38.30;;;21.97;;
11970;SDS011;6045;42.682;23.294;2022-12-24T11:15:00;33.43;;;20.47;;
11970;SDS011;6045;42.682;23.294;2022-12-24T11:17:29;35.10;;;19.73;;
11970;SDS011;6045;42.682;23.294;2022-12-24T11:19:56;31.80;;;19.93;;
11970;SDS011;6045;42.682;23.294;2022-12-24T11:22:24;40.57;;;23.40;;
11970;SDS011;6045;42.682;23.294;2022-12-24T11:24:59;32.37;;;20.70;;
11970;SDS011;6045;42.682;23.294;2022-12-24T11:27:30;34.27;;;20.10;;
11970;SDS011;6045;42.682;23.294;2022-12-24T11:30:19;33.23;;;19.67;;
11970;SDS011;6045;42.682;23.294;2022-12-24T11:35:52;36.03;;;19.57;;
11970;SDS011;6045;42.682;23.294;2022-12-24T11:38:24;33.47;;;18.70;;
11970;SDS011;6045;42.682;23.294;2022-12-24T11:41:00;24.37;;;15.20;;
11970;SDS011;6045;42.682;23.294;2022-12-24T11:43:34;20.17;;;13.20;;
11970;SDS011;6045;42.682;23.294;2022-12-24T11:46:13;22.10;;;11.90;;
11970;SDS011;6045;42.682;23.294;2022-12-24T11:49:03;21.97;;;13.77;;
11970;SDS011;6045;42.682;23.294;2022-12-24T11:51:32;22.10;;;12.93;;
11970;SDS011;6045;42.682;23.294;2022-12-24T11:54:01;22.02;;;14.25;;
11970;SDS011;6045;42.682;23.294;2022-12-24T11:56:36;23.83;;;14.52;;
11970;SDS011;6045;42.682;23.294;2022-12-24T11:59:08;27.47;;;15.83;;
11970;SDS011;6045;42.682;23.294;2022-12-24T12:01:43;25.27;;;15.17;;
11970;SDS011;6045;42.682;23.294;2022-12-24T12:04:18;28.07;;;16.77;;
11970;SDS011;6045;42.682;23.294;2022-12-24T12:06:47;22.60;;;16.80;;
11970;SDS011;6045;42.682;23.294;2022-12-24T12:09:19;29.97;;;16.67;;
11970;SDS011;6045;42.682;23.294;2022-12-24T12:11:52;28.67;;;16.80;;
11970;SDS011;6045;42.682;23.294;2022-12-24T12:14:22;26.77;;;18.37;;
11970;SDS011;6045;42.682;23.294;2022-12-24T12:16:57;31.73;;;20.57;;
11970;SDS011;6045;42.682;23.294;2022-12-24T12:19:30;32.47;;;19.43;;
11970;SDS011;6045;42.682;23.294;2022-12-24T12:22:04;36.53;;;22.53;;
11970;SDS011;6045;42.682;23.294;2022-12-24T12:24:37;33.30;;;21.70;;
11970;SDS011;6045;42.682;23.294;2022-12-24T12:27:16;32.57;;;22.03;;
11970;SDS011;6045;42.682;23.294;2022-12-24T12:29:48;38.47;;;19.77;;
11970;SDS011;6045;42.682;23.294;2022-12-24T12:32:22;35.70;;;20.23;;
11970;SDS011;6045;42.682;23.294;2022-12-24T12:34:55;40.00;;;21.87;;
11970;SDS011;6045;42.682;23.294;2022-12-24T12:37:30;37.87;;;21.13;;
11970;SDS011;6045;42.682;23.294;2022-12-24T12:40:00;33.77;;;21.07;;
11970;SDS011;6045;42.682;23.294;2022-12-24T12:42:30;38.97;;;22.30;;
11970;SDS011;6045;42.682;23.294;2022-12-24T12:45:02;36.97;;;22.90;;
11970;SDS011;6045;42.682;23.294;2022-12-24T12:48:00;34.43;;;20.80;;
11970;SDS011;6045;42.682;23.294;2022-12-24T12:50:47;37.17;;;20.73;;
11970;SDS011;6045;42.682;23.294;2022-12-24T12:56:19;26.93;;;16.13;;
11970;SDS011;6045;42.682;23.294;2022-12-24T12:58:52;27.67;;;15.13;;
11970;SDS011;6045;42.682;23.294;2022-12-24T13:01:25;24.60;;;15.07;;
11970;SDS011;6045;42.682;23.294;2022-12-24T13:04:02;33.67;;;15.50;;
11970;SDS011;6045;42.682;23.294;2022-12-24T13:07:05;26.57;;;14.33;;
11970;SDS011;6045;42.682;23.294;2022-12-24T13:12:49;24.57;;;14.33;;
11970;SDS011;6045;42.682;23.294;2022-12-24T13:15:38;25.57;;;13.90;;
11970;SDS011;6045;42.682;23.294;2022-12-24T13:18:25;28.07;;;15.23;;
11970;SDS011;6045;42.682;23.294;2022-12-24T13:21:14;28.17;;;16.97;;
11970;SDS011;6045;42.682;23.294;2022-12-24T13:23:41;23.63;;;14.33;;
11970;SDS011;6045;42.682;23.294;2022-12-24T13:26:09;26.87;;;14.93;;
11970;SDS011;6045;42.682;23.294;2022-12-24T13:28:37;25.53;;;16.13;;
11970;SDS011;6045;42.682;23.294;2022-12-24T13:31:24;34.47;;;18.50;;
11970;SDS011;6045;42.682;23.294;2022-12-24T13:33:56;36.40;;;17.73;;
11970;SDS011;6045;42.682;23.294;2022-12-24T13:39:29;29.43;;;17.37;;
11970;SDS011;6045;42.682;23.294;2022-12-24T13:42:49;29.00;;;18.60;;
11970;SDS011;6045;42.682;23.294;2022-12-24T13:48:12;32.83;;;18.57;;
11970;SDS011;6045;42.682;23.294;2022-12-24T13:50:48;38.10;;;18.90;;
11970;SDS011;6045;42.682;23.294;2022-12-24T13:53:20;32.77;;;18.37;;
11970;SDS011;6045;42.682;23.294;2022-12-24T13:55:50;29.43;;;19.53;;
11970;SDS011;6045;42.682;23.294;2022-12-24T13:58:20;32.43;;;18.20;;
11970;SDS011;6045;42.682;23.294;2022-12-24T14:00:53;32.70;;;19.17;;
11970;SDS011;6045;42.682;23.294;2022-12-24T14:03:23;32.57;;;15.97;;
11970;SDS011;6045;42.682;23.294;2022-12-24T14:05:56;34.90;;;19.23;;
11970;SDS011;6045;42.682;23.294;2022-12-24T14:08:36;30.03;;;16.33;;
11970;SDS011;6045;42.682;23.294;2022-12-24T14:11:11;33.33;;;18.57;;
11970;SDS011;6045;42.682;23.294;2022-12-24T14:16:52;26.63;;;16.53;;
11970;SDS011;6045;42.682;23.294;2022-12-24T14:19:22;39.67;;;18.70;;
11970;SDS011;6045;42.682;23.294;2022-12-24T14:21:53;38.30;;;19.57;;
11970;SDS011;6045;42.682;23.294;2022-12-24T14:24:25;35.57;;;19.80;;
11970;SDS011;6045;42.682;23.294;2022-12-24T14:26:59;36.53;;;20.17;;
11970;SDS011;6045;42.682;23.294;2022-12-24T14:29:34;28.87;;;17.13;;
11970;SDS011;6045;42.682;23.294;2022-12-24T14:32:11;30.23;;;20.10;;
11970;SDS011;6045;42.682;23.294;2022-12-24T14:34:40;33.90;;;19.57;;
11970;SDS011;6045;42.682;23.294;2022-12-24T14:37:07;32.70;;;19.77;;
11970;SDS011;6045;42.682;23.294;2022-12-24T14:39:38;32.17;;;18.53;;
11970;SDS011;6045;42.682;23.294;2022-12-24T14:42:27;37.67;;;16.10;;
11970;SDS011;6045;42.682;23.294;2022-12-24T14:45:02;19.63;;;10.93;;
11970;SDS011;6045;42.682;23.294;2022-12-24T14:47:39;22.63;;;13.37;;
11970;SDS011;6045;42.682;23.294;2022-12-24T14:53:16;22.97;;;10.30;;
11970;SDS011;6045;42.682;23.294;2022-12-24T14:55:51;14.90;;;9.50;;
11970;SDS011;6045;42.682;23.294;2022-12-24T14:58:22;19.13;;;10.93;;
11970;SDS011;6045;42.682;23.294;2022-12-24T15:00:52;14.93;;;9.07;;
11970;SDS011;6045;42.682;23.294;2022-12-24T15:03:21;16.80;;;10.40;;
11970;SDS011;6045;42.682;23.294;2022-12-24T15:05:50;15.27;;;9.27;;
11970;SDS011;6045;42.682;23.294;2022-12-24T15:08:20;13.23;;;9.10;;
11970;SDS011;6045;42.682;23.294;2022-12-24T15:10:53;13.40;;;8.93;;
11970;SDS011;6045;42.682;23.294;2022-12-24T15:13:27;13.67;;;7.83;;
11970;SDS011;6045;42.682;23.294;2022-12-24T15:15:59;10.73;;;6.53;;